Time,TemperatureF,DewpointF,PressureIn,WindDirection,WindDirectionDegrees,WindSpeedMPH,WindSpeedGustMPH,Humidity,HourlyPrecipIn,Conditions,Clouds,dailyrainin,SolarRadiationWatts/m^2,SoftwareType,DateUTC
2013-06-07 00:02:00,65.0,62.0,-100.00,West,267,3.0,4.0,91,0.00,,,0.64,0.000000,,2013-06-07 05:02:00,
2013-06-07 00:23:00,65.0,62.0,-100.00,West,267,3.0,4.0,91,0.00,,,0.64,0.000000,,2013-06-07 05:23:00,
2013-06-07 00:32:00,65.0,62.0,-100.00,West,267,3.0,4.0,91,0.00,,,0.64,0.000000,,2013-06-07 05:32:00,
2013-06-07 00:42:00,65.0,62.0,-100.00,West,267,3.0,4.0,91,0.00,,,0.64,0.000000,,2013-06-07 05:42:00,
2013-06-07 00:52:00,65.0,62.0,-100.00,West,267,3.0,4.0,91,0.00,,,0.64,0.000000,,2013-06-07 05:52:00,
2013-06-07 01:02:00,66.0,61.0,-100.00,West,281,3.0,5.0,83,0.00,,,0.64,0.000000,,2013-06-07 06:02:00,
2013-06-07 01:22:00,66.0,61.0,-100.00,West,281,3.0,5.0,83,0.00,,,0.64,0.000000,,2013-06-07 06:22:00,
2013-06-07 01:32:00,66.0,61.0,-100.00,West,281,3.0,5.0,83,0.00,,,0.64,0.000000,,2013-06-07 06:32:00,
2013-06-07 01:43:00,66.0,61.0,-100.00,West,281,3.0,5.0,83,0.00,,,0.64,0.000000,,2013-06-07 06:43:00,
2013-06-07 01:52:00,66.0,61.0,-100.00,West,281,3.0,5.0,83,0.00,,,0.64,0.000000,,2013-06-07 06:52:00,
2013-06-07 02:02:00,64.0,59.0,-100.00,WSW,256,3.0,5.0,85,0.00,,,0.64,0.000000,,2013-06-07 07:02:00,
2013-06-07 02:22:00,64.0,59.0,-100.00,WSW,256,3.0,5.0,85,0.00,,,0.64,0.000000,,2013-06-07 07:22:00,
2013-06-07 02:32:00,64.0,59.0,-100.00,WSW,256,3.0,5.0,85,0.00,,,0.64,0.000000,,2013-06-07 07:32:00,
2013-06-07 02:42:00,64.0,59.0,-100.00,WSW,256,3.0,5.0,85,0.00,,,0.64,0.000000,,2013-06-07 07:42:00,
2013-06-07 02:52:00,64.0,59.0,-100.00,WSW,256,3.0,5.0,85,0.00,,,0.64,0.000000,,2013-06-07 07:52:00,
2013-06-07 03:02:00,62.0,58.0,-100.00,WSW,240,2.0,4.0,88,0.00,,,0.64,0.000000,,2013-06-07 08:02:00,
2013-06-07 03:22:00,62.0,58.0,-100.00,WSW,240,2.0,4.0,88,0.00,,,0.64,0.000000,,2013-06-07 08:22:00,
2013-06-07 03:32:00,62.0,58.0,-100.00,WSW,240,2.0,4.0,88,0.00,,,0.64,0.000000,,2013-06-07 08:32:00,
2013-06-07 03:43:00,62.0,58.0,-100.00,WSW,240,2.0,4.0,88,0.00,,,0.64,0.000000,,2013-06-07 08:43:00,
2013-06-07 03:52:00,62.0,58.0,-100.00,WSW,240,2.0,4.0,88,0.00,,,0.64,0.000000,,2013-06-07 08:52:00,
2013-06-07 04:02:00,60.0,56.0,-100.00,WSW,242,3.0,4.0,88,0.00,,,0.64,0.000000,,2013-06-07 09:02:00,
2013-06-07 04:22:00,60.0,56.0,-100.00,WSW,242,3.0,4.0,88,0.00,,,0.64,0.000000,,2013-06-07 09:22:00,
2013-06-07 04:32:00,60.0,56.0,-100.00,WSW,242,3.0,4.0,88,0.00,,,0.64,0.000000,,2013-06-07 09:32:00,
2013-06-07 04:43:00,60.0,56.0,-100.00,WSW,242,3.0,4.0,88,0.00,,,0.64,0.000000,,2013-06-07 09:43:00,
2013-06-07 04:53:00,60.0,56.0,-100.00,WSW,242,3.0,4.0,88,0.00,,,0.64,0.000000,,2013-06-07 09:53:00,
2013-06-07 05:02:00,59.0,56.0,-100.00,WSW,252,3.0,4.0,89,0.00,,,0.64,0.000000,,2013-06-07 10:02:00,
2013-06-07 05:23:00,59.0,56.0,-100.00,WSW,252,3.0,4.0,89,0.00,,,0.64,0.000000,,2013-06-07 10:23:00,
2013-06-07 05:33:00,59.0,56.0,-100.00,WSW,252,3.0,4.0,89,0.00,,,0.64,0.000000,,2013-06-07 10:33:00,
2013-06-07 05:43:00,59.0,56.0,-100.00,WSW,252,3.0,4.0,89,0.00,,,0.64,0.000000,,2013-06-07 10:43:00,
2013-06-07 05:53:00,59.0,56.0,-100.00,WSW,252,3.0,4.0,89,0.00,,,0.64,0.000000,,2013-06-07 10:53:00,
2013-06-07 06:02:00,58.0,55.0,-100.00,WSW,256,3.0,4.0,89,0.00,,,0.64,0.000000,,2013-06-07 11:02:00,
2013-06-07 06:22:00,58.0,55.0,-100.00,WSW,256,3.0,4.0,89,0.00,,,0.64,0.000000,,2013-06-07 11:22:00,
2013-06-07 06:32:00,58.0,55.0,-100.00,WSW,256,3.0,4.0,89,0.00,,,0.64,0.000000,,2013-06-07 11:32:00,
2013-06-07 06:42:00,58.0,55.0,-100.00,WSW,256,3.0,4.0,89,0.00,,,0.64,0.000000,,2013-06-07 11:42:00,
2013-06-07 06:52:00,58.0,55.0,-100.00,WSW,256,3.0,4.0,89,0.00,,,0.64,0.000000,,2013-06-07 11:52:00,
2013-06-07 07:02:00,61.0,56.0,-100.00,West,270,3.0,6.0,85,0.00,,,-99.99,46.000000,,2013-06-07 12:02:00,
2013-06-07 07:22:00,61.0,56.0,-100.00,West,270,3.0,6.0,85,0.00,,,-99.99,46.000000,,2013-06-07 12:22:00,
2013-06-07 07:33:00,61.0,56.0,-100.00,West,270,3.0,6.0,85,0.00,,,-99.99,46.000000,,2013-06-07 12:33:00,
2013-06-07 07:42:00,61.0,56.0,-100.00,West,270,3.0,6.0,85,0.00,,,-99.99,46.000000,,2013-06-07 12:42:00,
2013-06-07 07:52:00,61.0,56.0,-100.00,West,270,3.0,6.0,85,0.00,,,-99.99,46.000000,,2013-06-07 12:52:00,
2013-06-07 08:02:00,67.0,59.0,-100.00,WNW,284,3.0,6.0,76,0.00,,,0.64,231.000000,,2013-06-07 13:02:00,
2013-06-07 08:22:00,67.0,59.0,-100.00,WNW,284,3.0,6.0,76,0.00,,,0.64,231.000000,,2013-06-07 13:22:00,
2013-06-07 08:32:00,67.0,59.0,-100.00,WNW,284,3.0,6.0,76,0.00,,,0.64,231.000000,,2013-06-07 13:32:00,
2013-06-07 08:43:00,67.0,59.0,-100.00,WNW,284,3.0,6.0,76,0.00,,,0.64,231.000000,,2013-06-07 13:43:00,
2013-06-07 08:52:00,67.0,59.0,-100.00,WNW,284,3.0,6.0,76,0.00,,,0.64,231.000000,,2013-06-07 13:52:00,
2013-06-07 09:02:00,73.0,61.0,-100.00,NNE,19,3.0,7.0,65,0.00,,,0.34,457.000000,,2013-06-07 14:02:00,
2013-06-07 09:23:00,73.0,61.0,-100.00,NNE,19,3.0,7.0,65,0.00,,,0.34,457.000000,,2013-06-07 14:23:00,
2013-06-07 09:33:00,73.0,61.0,-100.00,NNE,19,3.0,7.0,65,0.00,,,0.34,457.000000,,2013-06-07 14:33:00,
2013-06-07 09:42:00,73.0,61.0,-100.00,NNE,19,3.0,7.0,65,0.00,,,0.34,457.000000,,2013-06-07 14:42:00,
2013-06-07 09:52:00,73.0,61.0,-100.00,NNE,19,3.0,7.0,65,0.00,,,0.34,457.000000,,2013-06-07 14:52:00,
2013-06-07 10:02:00,76.0,57.0,-100.00,NE,45,6.0,12.0,52,0.00,,,0.13,677.000000,,2013-06-07 15:02:00,
2013-06-07 10:23:00,76.0,57.0,-100.00,NE,45,6.0,12.0,52,0.00,,,0.13,677.000000,,2013-06-07 15:23:00,
2013-06-07 10:33:00,76.0,57.0,-100.00,NE,45,6.0,12.0,52,0.00,,,0.13,677.000000,,2013-06-07 15:33:00,
2013-06-07 10:43:00,76.0,57.0,-100.00,NE,45,6.0,12.0,52,0.00,,,0.13,677.000000,,2013-06-07 15:43:00,
2013-06-07 10:53:00,76.0,57.0,-100.00,NE,45,6.0,12.0,52,0.00,,,0.13,677.000000,,2013-06-07 15:53:00,
2013-06-07 11:02:00,77.0,57.0,-100.00,North,11,5.0,12.0,50,0.00,,,0.03,875.000000,,2013-06-07 16:02:00,
2013-06-07 11:22:00,77.0,57.0,-100.00,North,11,5.0,12.0,50,0.00,,,0.03,875.000000,,2013-06-07 16:22:00,
2013-06-07 11:33:00,77.0,57.0,-100.00,North,11,5.0,12.0,50,0.00,,,0.03,875.000000,,2013-06-07 16:33:00,
2013-06-07 11:43:00,77.0,57.0,-100.00,North,11,5.0,12.0,50,0.00,,,0.03,875.000000,,2013-06-07 16:43:00,
2013-06-07 11:53:00,77.0,57.0,-100.00,North,11,5.0,12.0,50,0.00,,,0.03,875.000000,,2013-06-07 16:53:00,
2013-06-07 12:02:00,80.0,55.0,-100.00,NNW,347,4.0,10.0,43,0.00,,,0.02,1030.000000,,2013-06-07 17:02:00,
2013-06-07 12:23:00,80.0,55.0,-100.00,NNW,347,4.0,10.0,43,0.00,,,0.02,1030.000000,,2013-06-07 17:23:00,
2013-06-07 12:32:00,80.0,55.0,-100.00,NNW,347,4.0,10.0,43,0.00,,,0.02,1030.000000,,2013-06-07 17:32:00,
2013-06-07 12:43:00,80.0,55.0,-100.00,NNW,347,4.0,10.0,43,0.00,,,0.02,1030.000000,,2013-06-07 17:43:00,
2013-06-07 12:52:00,80.0,55.0,-100.00,NNW,347,4.0,10.0,43,0.00,,,0.02,1030.000000,,2013-06-07 17:52:00,
2013-06-07 13:28:00,81.0,56.0,-100.00,NNE,30,3.0,10.0,42,0.00,,,0.01,1084.000000,,2013-06-07 18:28:00,
2013-06-07 13:38:00,81.0,56.0,-100.00,NNE,30,3.0,10.0,42,0.00,,,0.01,1084.000000,,2013-06-07 18:38:00,
2013-06-07 13:45:00,81.0,56.0,-100.00,NNE,30,3.0,10.0,42,0.00,,,0.01,1084.000000,,2013-06-07 18:45:00,
2013-06-07 13:59:00,81.0,56.0,-100.00,NNE,30,3.0,10.0,42,0.00,,,0.01,1084.000000,,2013-06-07 18:59:00,
2013-06-07 14:02:00,82.0,50.0,-100.00,East,85,4.0,9.0,33,0.00,,,0.01,1159.000000,,2013-06-07 19:02:00,
2013-06-07 14:29:00,82.0,50.0,-100.00,East,85,4.0,9.0,33,0.00,,,0.01,1159.000000,,2013-06-07 19:29:00,
2013-06-07 14:40:00,82.0,50.0,-100.00,East,85,4.0,9.0,33,0.00,,,0.01,1159.000000,,2013-06-07 19:40:00,
2013-06-07 14:50:00,82.0,50.0,-100.00,East,85,4.0,9.0,33,0.00,,,0.01,1159.000000,,2013-06-07 19:50:00,
2013-06-07 14:58:00,82.0,50.0,-100.00,East,85,4.0,9.0,33,0.00,,,0.01,1159.000000,,2013-06-07 19:58:00,
2013-06-07 15:02:00,82.0,52.0,-100.00,NW,314,4.0,9.0,36,0.00,,,0.00,1109.000000,,2013-06-07 20:02:00,
2013-06-07 15:28:00,82.0,52.0,-100.00,NW,314,4.0,9.0,36,0.00,,,0.00,1109.000000,,2013-06-07 20:28:00,
2013-06-07 15:41:00,82.0,52.0,-100.00,NW,314,4.0,9.0,36,0.00,,,0.00,1109.000000,,2013-06-07 20:41:00,
2013-06-07 15:58:00,82.0,52.0,-100.00,NW,314,4.0,9.0,36,0.00,,,0.00,1109.000000,,2013-06-07 20:58:00,
2013-06-07 16:02:00,83.0,52.0,-100.00,North,350,4.0,9.0,35,0.00,,,0.00,936.000000,,2013-06-07 21:02:00,
2013-06-07 16:30:00,83.0,52.0,-100.00,North,350,4.0,9.0,35,0.00,,,0.00,936.000000,,2013-06-07 21:30:00,
2013-06-07 16:42:00,83.0,52.0,-100.00,North,350,4.0,9.0,35,0.00,,,0.00,936.000000,,2013-06-07 21:42:00,
2013-06-07 17:00:00,83.0,52.0,-100.00,North,350,4.0,9.0,35,0.00,,,0.00,936.000000,,2013-06-07 22:00:00,
2013-06-07 17:02:00,82.0,54.0,-100.00,NNE,28,5.0,14.0,38,0.00,,,0.00,791.000000,,2013-06-07 22:02:00,
2013-06-07 17:39:00,82.0,54.0,-100.00,NNE,28,5.0,14.0,38,0.00,,,0.00,791.000000,,2013-06-07 22:39:00,
2013-06-07 17:49:00,82.0,54.0,-100.00,NNE,28,5.0,14.0,38,0.00,,,0.00,791.000000,,2013-06-07 22:49:00,
2013-06-07 17:59:00,82.0,54.0,-100.00,NNE,28,5.0,14.0,38,0.00,,,0.00,791.000000,,2013-06-07 22:59:00,
2013-06-07 18:02:00,82.0,53.0,-100.00,NNE,33,2.0,8.0,37,0.00,,,0.00,483.000000,,2013-06-07 23:02:00,
2013-06-07 18:33:00,82.0,53.0,-100.00,NNE,33,2.0,8.0,37,0.00,,,0.00,483.000000,,2013-06-07 23:33:00,
2013-06-07 18:41:00,82.0,53.0,-100.00,NNE,33,2.0,8.0,37,0.00,,,0.00,483.000000,,2013-06-07 23:41:00,
2013-06-07 18:54:00,82.0,53.0,-100.00,NNE,33,2.0,8.0,37,0.00,,,0.00,483.000000,,2013-06-07 23:54:00,
2013-06-07 19:02:00,81.0,58.0,-100.00,ENE,58,2.0,6.0,45,0.00,,,0.00,340.000000,,2013-06-08 00:02:00,
2013-06-07 19:37:00,81.0,58.0,-100.00,ENE,58,2.0,6.0,45,0.00,,,0.00,340.000000,,2013-06-08 00:37:00,
2013-06-07 19:47:00,81.0,58.0,-100.00,ENE,58,2.0,6.0,45,0.00,,,0.00,340.000000,,2013-06-08 00:47:00,
2013-06-07 20:00:00,81.0,58.0,-100.00,ENE,58,2.0,6.0,45,0.00,,,0.00,340.000000,,2013-06-08 01:00:00,
2013-06-07 20:02:00,77.0,63.0,-100.00,NW,317,1.0,2.0,62,0.00,,,0.00,128.000000,,2013-06-08 01:02:00,
2013-06-07 20:29:00,77.0,63.0,-100.00,NW,317,1.0,2.0,62,0.00,,,0.00,128.000000,,2013-06-08 01:29:00,
2013-06-07 20:48:00,77.0,63.0,-100.00,NW,317,1.0,2.0,62,0.00,,,0.00,128.000000,,2013-06-08 01:48:00,
2013-06-07 21:00:00,77.0,63.0,-100.00,NW,317,1.0,2.0,62,0.00,,,0.00,128.000000,,2013-06-08 02:00:00,
2013-06-07 21:02:00,69.0,61.0,-100.00,West,281,1.0,3.0,76,0.00,,,0.00,9.000000,,2013-06-08 02:02:00,
2013-06-07 21:37:00,69.0,61.0,-100.00,West,281,1.0,3.0,76,0.00,,,0.00,9.000000,,2013-06-08 02:37:00,
2013-06-07 21:49:00,69.0,61.0,-100.00,West,281,1.0,3.0,76,0.00,,,0.00,9.000000,,2013-06-08 02:49:00,
2013-06-07 21:59:00,69.0,61.0,-100.00,West,281,1.0,3.0,76,0.00,,,0.00,9.000000,,2013-06-08 02:59:00,
2013-06-07 22:02:00,67.0,58.0,-100.00,NW,318,2.0,3.0,74,0.00,,,0.00,0.000000,,2013-06-08 03:02:00,
2013-06-07 22:27:00,67.0,58.0,-100.00,NW,318,2.0,3.0,74,0.00,,,0.00,0.000000,,2013-06-08 03:27:00,
2013-06-07 22:40:00,67.0,58.0,-100.00,NW,318,2.0,3.0,74,0.00,,,0.00,0.000000,,2013-06-08 03:40:00,
2013-06-07 22:53:00,67.0,58.0,-100.00,NW,318,2.0,3.0,74,0.00,,,0.00,0.000000,,2013-06-08 03:53:00,
2013-06-07 23:00:00,67.0,58.0,-100.00,NW,318,2.0,3.0,74,0.00,,,0.00,0.000000,,2013-06-08 04:00:00,
2013-06-07 23:02:00,66.0,57.0,-100.00,WNW,303,3.0,5.0,73,0.00,,,0.00,0.000000,,2013-06-08 04:02:00,
2013-06-07 23:23:00,66.0,57.0,-100.00,WNW,303,3.0,5.0,73,0.00,,,0.00,0.000000,,2013-06-08 04:23:00,
2013-06-07 23:33:00,66.0,57.0,-100.00,WNW,303,3.0,5.0,73,0.00,,,0.00,0.000000,,2013-06-08 04:33:00,
2013-06-07 23:42:00,66.0,57.0,-100.00,WNW,303,3.0,5.0,73,0.00,,,0.00,0.000000,,2013-06-08 04:42:00,
2013-06-07 23:53:00,66.0,57.0,-100.00,WNW,303,3.0,5.0,73,0.00,,,0.00,0.000000,,2013-06-08 04:53:00,